INFORMACIÓN METAR y TAF
METAR FOR LEPA
ADDS - METARS form results

(2211 UTC 19 September 2020)
Data provider http://aviationweather.gov/metar/data/
 
METAR text: LEPA 192200Z 24007KT 200V280 9999 FEW022 25/20 Q1015 NOSIG
Conditions at: LEPA (PALMA DE MALLORC, ES) observed 2200 UTC 19 September 2020
Temperature: 25.0°C (77°F)
Dewpoint: 20.0°C (68°F) [RH = 74%]
Pressure (altimeter): 29.97 inches Hg (1015.0 mb)
Winds: from the WSW (240 degrees) at 8 MPH (7 knots; 3.6 m/s)
Visibility: 6 or more miles (10+ km)
Ceiling: at least 12,000 feet AGL
Clouds: few clouds at 2200 feet AGL
Weather: no significant weather observed at this time

METAR text: LEPA 192130Z 23009KT 200V260 9999 FEW022 25/20 Q1015 NOSIG
Conditions at: LEPA (PALMA DE MALLORC, ES) observed 2130 UTC 19 September 2020
Temperature: 25.0°C (77°F)
Dewpoint: 20.0°C (68°F) [RH = 74%]
Pressure (altimeter): 29.97 inches Hg (1015.0 mb)
Winds: from the SW (230 degrees) at 10 MPH (9 knots; 4.6 m/s)
Visibility: 6 or more miles (10+ km)
Ceiling: at least 12,000 feet AGL
Clouds: few clouds at 2200 feet AGL
Weather: no significant weather observed at this time

Forecast for: LEPA (PALMA DE MALLORC, ES)
Text: TAF LEPA 191700Z 1918/2018 23005KT 9999 FEW025 TX30/2012Z TN19/2006Z
Forecast period: 1800 UTC 19 September 2020 to 1100 UTC 20 September 2020
Forecast type: FROM: standard forecast or significant change
Winds: from the SW (230 degrees) at 6 MPH (5 knots; 2.6 m/s)
Visibility: 6 or more miles (10+ km)
Ceiling: at least 12,000 feet AGL
Clouds: few clouds at 2500 feet AGL
Weather: no significant weather forecast for this period
Text: BECMG 2011/2013 22010KT
Forecast period: 1100 to 1800 UTC 20 September 2020
Forecast type: BECOMING: Conditions expected to become as follows by 1300 UTC 20 September 2020
Winds: from the SW (220 degrees) at 12 MPH (10 knots; 5.1 m/s)
Visibility: 6 or more miles (10+ km)
Ceiling: at least 12,000 feet AGL
Clouds: few clouds at 2500 feet AGL
Weather: no significant weather forecast for this period

 MAPA DE AEROPUERTO

 INFORMACIÓN DE PISTA
Pista 06L Longitud 10728 ft Ancho 148 ft
Elevación 15 ft Umbral desplazado 0 ft Rumbo de pista 59
Pista 24R Longitud 10728 ft Ancho 148 ft
Elevación 8 ft Umbral desplazado 230 ft Rumbo de pista 239
Pista 06R Longitud 9842 ft Ancho 148 ft
Elevación 24 ft Umbral desplazado 1345 ft Rumbo de pista 59
Pista 24L Longitud 9842 ft Ancho 148 ft
Elevación 8 ft Umbral desplazado 0 ft Rumbo de pista 239

 FRECUANCIAS DEL AEROPUERTO
Tipo APP Nombre APP Frecuencia 118.95 MHZ
Tipo ATIS Nombre ATIS Frecuencia 119.25 MHZ
Tipo CLD Nombre CLNC DEL Frecuencia 121.6 MHZ
Tipo GND Nombre GND Frecuencia 121.7 MHZ
Tipo OPS Nombre OPS Frecuencia 130.25 MHZ
Tipo TWR Nombre TWR Frecuencia 118.3 MHZ

 RADIO AYUDAS DEL AEROPUERTO



Powered by Virtual Airlines Manager [v2.6.2]